Hauptseite
METAR-TAF:

METAR-TAF

Flughäfen :

Flughafen Cần Thơ

Cần Thơ, Vietnam

Breite: 10-05-07N, Länge: 105-42-43E, Höhe: 3 m

Beobachtung

Neuester Wetterbericht von vor 21 Minuten, um 11:30 UTC
Wind 7 kt aus Ost/Südost
Temperatur 29°C
Luftfeuchtigkeit 70%
Luftdruck 1008 hPa
Sichtweite 10 km oder mehr
Leicht bewölkt in der Höhe von 1700 ft, Towering cumulus.

METAR: VVCT 141130Z 12007KT 9999 FEW015015 FEW017TCU 29/23 Q1008 NOSIG TCU/NW

Zeit: 18:51 (11:51 UTC)

Prognose

Neuester Wetterbericht von vor 51 Minuten, um 11:00 UTC
Gültige Prognose vom 14 um 12 UTC bis 15 um 12 UTC
Wind 3 kt aus unterschiedlichen Richtungen
Sichtweite 10 km oder mehr
Aufgelockert bewölkt in der Höhe von 1500 ft
Übergehend zu
vom 15 um 01 UTC bis 15 um 02 UTC
Wind 10 kt aus Ost

TAF: VVCT 141100Z 1412/1512 VRB03KT 9999 SCT015 BECMG 1501/1502 09010KT

Wetterbeobachtungen und Prognosen von mehr als 4000 Flughäfen (METAR und TAF Bericht).

Die verfügbaren Stationen werden durch gelbe und rote Markierungen auf der Karte dargestellt.

Führen Sie die Maus auf sie, um den Namen der Station zu sehen.

Darauf klicken, um die Beobachtung von Wetterbeobachtungen und Prognosen zu sehen.

Um die Karte zu ändern : klicken Sie auf den grünen Tasten mit einem schwarzen Kreuz Zum Vergrößern, auf den grünen Button mit einem Gedankenstrich zu verkleinern, oder auf die grünen Pfeile für benachbarte Karten.


METAR-TAF: